LAN21 SCEL-SCQP
Flight info
| Callsign | LAN21 |
|---|---|
| Flight time | 0h 54m |
| Altitude | 35000 |
| Route | ANGOD6C ANGOD UQ803 SUMKO SUMKO4E |
| Aircraft | A320/M-SDE3FGHIRWY/LB1 |
Departure
| Time | 2026-05-05 22:05 |
|---|---|
| Airport | Comodoro Arturo Merino Benítez International Airport (SCEL) |
Arrival
| Time | 2026-05-05 22:59 |
|---|---|
| Airport | La Araucanía International Airport (SCQP) |
| Time | Latitude | Longitude | Altitude | Speed | Heading |
|---|---|---|---|---|---|
| 2026-05-05 22:03 | -33.37209 | -70.80373 | 1573 ft | 0 kts | 179° |
| 2026-05-05 22:04 | -33.37238 | -70.80372 | 1573 ft | 27 kts | 179° |
| 2026-05-05 22:04 | -33.37703 | -70.80346 | 1572 ft | 103 kts | 177° |
| 2026-05-05 22:04 | -33.38619 | -70.80297 | 1574 ft | 158 kts | 178° |
| 2026-05-05 22:05 | -33.39785 | -70.80258 | 2106 ft | 167 kts | 178° |
| 2026-05-05 22:05 | -33.40942 | -70.80203 | 2900 ft | 167 kts | 176° |
| 2026-05-05 22:05 | -33.42090 | -70.80133 | 3579 ft | 171 kts | 176° |
| 2026-05-05 22:05 | -33.43374 | -70.80046 | 3877 ft | 194 kts | 176° |
| 2026-05-05 22:06 | -33.44787 | -70.79962 | 4161 ft | 218 kts | 177° |
| 2026-05-05 22:06 | -33.46407 | -70.79872 | 4573 ft | 242 kts | 177° |
| 2026-05-05 22:06 | -33.48154 | -70.79777 | 5007 ft | 266 kts | 177° |
| 2026-05-05 22:06 | -33.50055 | -70.79674 | 5733 ft | 277 kts | 177° |
| 2026-05-05 22:07 | -33.51999 | -70.79570 | 6639 ft | 283 kts | 177° |
| 2026-05-05 22:07 | -33.53981 | -70.79465 | 7559 ft | 287 kts | 177° |
| 2026-05-05 22:07 | -33.55452 | -70.79386 | 8210 ft | 290 kts | 177° |
| 2026-05-05 22:07 | -33.55854 | -70.79365 | 8384 ft | 291 kts | 177° |
| 2026-05-05 22:08 | -33.57901 | -70.79254 | 9235 ft | 296 kts | 178° |
| 2026-05-05 22:08 | -33.59963 | -70.79463 | 9816 ft | 302 kts | 193° |
| 2026-05-05 22:08 | -33.62009 | -70.80064 | 9995 ft | 302 kts | 195° |
| 2026-05-05 22:08 | -33.64084 | -70.80719 | 10263 ft | 320 kts | 196° |
| 2026-05-05 22:09 | -33.66320 | -70.81441 | 10559 ft | 344 kts | 196° |
| 2026-05-05 22:09 | -33.68672 | -70.82198 | 11133 ft | 356 kts | 196° |
| 2026-05-05 22:09 | -33.71089 | -70.82965 | 11871 ft | 361 kts | 196° |
| 2026-05-05 22:09 | -33.73507 | -70.83724 | 12662 ft | 365 kts | 196° |
| 2026-05-05 22:10 | -33.75988 | -70.84495 | 13423 ft | 370 kts | 196° |
| 2026-05-05 22:10 | -33.78491 | -70.85273 | 14179 ft | 374 kts | 197° |
| 2026-05-05 22:10 | -33.81030 | -70.86064 | 14928 ft | 378 kts | 197° |
| 2026-05-05 22:10 | -33.83596 | -70.86864 | 15680 ft | 382 kts | 197° |
| 2026-05-05 22:11 | -33.86189 | -70.87673 | 16392 ft | 386 kts | 197° |
| 2026-05-05 22:11 | -33.88799 | -70.88486 | 17081 ft | 390 kts | 197° |
| 2026-05-05 22:11 | -33.91447 | -70.89312 | 17759 ft | 394 kts | 197° |
| 2026-05-05 22:11 | -33.94107 | -70.90145 | 18422 ft | 398 kts | 198° |
| 2026-05-05 22:12 | -33.96806 | -70.90991 | 19054 ft | 402 kts | 198° |
| 2026-05-05 22:12 | -33.99494 | -70.91833 | 19677 ft | 405 kts | 198° |
| 2026-05-05 22:12 | -34.02241 | -70.92690 | 20273 ft | 408 kts | 197° |
| 2026-05-05 22:12 | -34.05006 | -70.93499 | 20828 ft | 413 kts | 197° |
| 2026-05-05 22:13 | -34.07823 | -70.94270 | 21418 ft | 416 kts | 196° |
| 2026-05-05 22:13 | -34.10668 | -70.95016 | 22003 ft | 419 kts | 196° |
| 2026-05-05 22:13 | -34.13524 | -70.95757 | 22530 ft | 422 kts | 196° |
| 2026-05-05 22:13 | -34.16412 | -70.96516 | 23060 ft | 425 kts | 196° |
| 2026-05-05 22:14 | -34.19317 | -70.97292 | 23598 ft | 428 kts | 197° |
| 2026-05-05 22:14 | -34.22232 | -70.98081 | 24122 ft | 431 kts | 197° |
| 2026-05-05 22:14 | -34.25171 | -70.98884 | 24618 ft | 434 kts | 197° |
| 2026-05-05 22:14 | -34.28116 | -70.99695 | 25094 ft | 436 kts | 197° |
| 2026-05-05 22:15 | -34.31055 | -71.00506 | 25554 ft | 440 kts | 197° |
| 2026-05-05 22:15 | -34.34083 | -71.01340 | 25987 ft | 442 kts | 197° |
| 2026-05-05 22:15 | -34.37061 | -71.02156 | 26398 ft | 445 kts | 197° |
| 2026-05-05 22:15 | -34.40083 | -71.02979 | 26840 ft | 447 kts | 197° |
| 2026-05-05 22:16 | -34.43134 | -71.03811 | 27271 ft | 450 kts | 197° |
| 2026-05-05 22:16 | -34.46202 | -71.04649 | 27679 ft | 452 kts | 197° |
| 2026-05-05 22:16 | -34.49285 | -71.05494 | 28088 ft | 454 kts | 197° |
| 2026-05-05 22:16 | -34.52383 | -71.06345 | 28472 ft | 457 kts | 197° |
| 2026-05-05 22:17 | -34.55455 | -71.07192 | 28848 ft | 459 kts | 197° |
| 2026-05-05 22:17 | -34.58609 | -71.08065 | 29188 ft | 461 kts | 198° |
| 2026-05-05 22:17 | -34.61708 | -71.08921 | 29541 ft | 463 kts | 198° |
| 2026-05-05 22:17 | -34.64865 | -71.09789 | 29875 ft | 465 kts | 198° |
| 2026-05-05 22:18 | -34.68022 | -71.10654 | 30219 ft | 467 kts | 198° |
| 2026-05-05 22:18 | -34.71208 | -71.11528 | 30550 ft | 469 kts | 198° |
| 2026-05-05 22:18 | -34.74394 | -71.12393 | 30905 ft | 470 kts | 197° |
| 2026-05-05 22:18 | -34.77601 | -71.13207 | 31371 ft | 469 kts | 196° |
| 2026-05-05 22:19 | -34.80792 | -71.13975 | 31819 ft | 468 kts | 196° |
| 2026-05-05 22:19 | -34.83994 | -71.14722 | 32242 ft | 467 kts | 196° |
| 2026-05-05 22:19 | -34.87192 | -71.15466 | 32658 ft | 466 kts | 196° |
| 2026-05-05 22:19 | -34.90365 | -71.16216 | 33075 ft | 465 kts | 196° |
| 2026-05-05 22:20 | -34.93541 | -71.16977 | 33490 ft | 463 kts | 197° |
| 2026-05-05 22:20 | -34.96693 | -71.17743 | 33891 ft | 462 kts | 197° |
| 2026-05-05 22:20 | -34.99849 | -71.18518 | 34293 ft | 461 kts | 197° |
| 2026-05-05 22:20 | -35.02981 | -71.19288 | 34692 ft | 460 kts | 197° |
| 2026-05-05 22:21 | -35.06085 | -71.20051 | 34923 ft | 460 kts | 197° |
| 2026-05-05 22:21 | -35.12341 | -71.21583 | 34972 ft | 458 kts | 197° |
| 2026-05-05 22:22 | -35.18585 | -71.23109 | 34981 ft | 457 kts | 197° |
| 2026-05-05 22:22 | -35.24827 | -71.24636 | 34979 ft | 457 kts | 197° |
| 2026-05-05 22:23 | -35.30014 | -71.25913 | 34979 ft | 457 kts | 197° |
| 2026-05-05 22:23 | -35.36250 | -71.27453 | 34980 ft | 457 kts | 197° |
| 2026-05-05 22:24 | -35.42491 | -71.28991 | 34979 ft | 457 kts | 197° |
| 2026-05-05 22:24 | -35.48733 | -71.30526 | 34976 ft | 457 kts | 197° |
| 2026-05-05 22:25 | -35.54970 | -71.32069 | 34973 ft | 457 kts | 198° |
| 2026-05-05 22:25 | -35.61207 | -71.33617 | 34966 ft | 457 kts | 198° |
| 2026-05-05 22:26 | -35.67445 | -71.35168 | 34963 ft | 457 kts | 198° |
| 2026-05-05 22:26 | -35.73701 | -71.36723 | 34959 ft | 458 kts | 198° |
| 2026-05-05 22:27 | -35.79948 | -71.38280 | 34960 ft | 458 kts | 198° |
| 2026-05-05 22:27 | -35.86188 | -71.39838 | 34962 ft | 458 kts | 198° |
| 2026-05-05 22:28 | -35.92403 | -71.41393 | 34955 ft | 458 kts | 198° |
| 2026-05-05 22:28 | -35.98655 | -71.42957 | 34953 ft | 459 kts | 198° |
| 2026-05-05 22:29 | -36.04914 | -71.44525 | 34951 ft | 459 kts | 198° |
| 2026-05-05 22:29 | -36.11171 | -71.46097 | 34953 ft | 459 kts | 198° |
| 2026-05-05 22:30 | -36.17445 | -71.47672 | 34950 ft | 459 kts | 198° |
| 2026-05-05 22:30 | -36.23702 | -71.49242 | 34951 ft | 459 kts | 198° |
| 2026-05-05 22:31 | -36.29957 | -71.50820 | 34947 ft | 459 kts | 198° |
| 2026-05-05 22:31 | -36.36229 | -71.52409 | 34943 ft | 458 kts | 198° |
| 2026-05-05 22:32 | -36.42427 | -71.53993 | 34944 ft | 458 kts | 198° |
| 2026-05-05 22:32 | -36.48678 | -71.55575 | 34946 ft | 458 kts | 198° |
| 2026-05-05 22:33 | -36.54929 | -71.57156 | 34943 ft | 458 kts | 198° |
| 2026-05-05 22:33 | -36.61173 | -71.58752 | 34938 ft | 458 kts | 198° |
| 2026-05-05 22:34 | -36.67435 | -71.60347 | 34932 ft | 458 kts | 198° |
| 2026-05-05 22:34 | -36.73683 | -71.61936 | 34932 ft | 458 kts | 198° |
| 2026-05-05 22:35 | -36.79900 | -71.63515 | 34928 ft | 458 kts | 198° |
| 2026-05-05 22:35 | -36.86149 | -71.65116 | 34927 ft | 458 kts | 198° |
| 2026-05-05 22:36 | -36.92406 | -71.66725 | 34923 ft | 457 kts | 198° |
| 2026-05-05 22:36 | -36.98628 | -71.68328 | 34892 ft | 458 kts | 198° |
| 2026-05-05 22:36 | -37.01717 | -71.69126 | 34645 ft | 458 kts | 198° |
| 2026-05-05 22:37 | -37.04874 | -71.69940 | 34393 ft | 458 kts | 198° |
| 2026-05-05 22:37 | -37.07962 | -71.70738 | 34143 ft | 458 kts | 198° |
| 2026-05-05 22:37 | -37.11095 | -71.71549 | 33897 ft | 459 kts | 198° |
| 2026-05-05 22:37 | -37.14215 | -71.72359 | 33645 ft | 459 kts | 198° |
| 2026-05-05 22:38 | -37.17352 | -71.73170 | 33384 ft | 460 kts | 197° |
| 2026-05-05 22:38 | -37.20480 | -71.73979 | 33144 ft | 461 kts | 197° |
| 2026-05-05 22:38 | -37.23629 | -71.74790 | 32902 ft | 461 kts | 197° |
| 2026-05-05 22:38 | -37.26769 | -71.75600 | 32644 ft | 462 kts | 197° |
| 2026-05-05 22:39 | -37.29927 | -71.76418 | 32392 ft | 463 kts | 197° |
| 2026-05-05 22:39 | -37.33090 | -71.77240 | 32142 ft | 464 kts | 197° |
| 2026-05-05 22:39 | -37.36260 | -71.78064 | 31892 ft | 465 kts | 197° |
| 2026-05-05 22:39 | -37.39422 | -71.78888 | 31638 ft | 466 kts | 197° |
| 2026-05-05 22:40 | -37.42602 | -71.79716 | 31282 ft | 466 kts | 197° |
| 2026-05-05 22:40 | -37.45759 | -71.80541 | 30190 ft | 473 kts | 197° |
| 2026-05-05 22:40 | -37.48965 | -71.81379 | 29573 ft | 468 kts | 196° |
| 2026-05-05 22:40 | -37.52136 | -71.82205 | 28892 ft | 465 kts | 196° |
| 2026-05-05 22:41 | -37.55301 | -71.83027 | 28168 ft | 462 kts | 196° |
| 2026-05-05 22:41 | -37.58430 | -71.83839 | 27489 ft | 458 kts | 196° |
| 2026-05-05 22:41 | -37.61542 | -71.84648 | 26812 ft | 455 kts | 196° |
| 2026-05-05 22:41 | -37.64637 | -71.85457 | 26138 ft | 452 kts | 196° |
| 2026-05-05 22:42 | -37.67708 | -71.86263 | 25467 ft | 448 kts | 196° |
| 2026-05-05 22:42 | -37.70683 | -71.87142 | 24842 ft | 440 kts | 202° |
| 2026-05-05 22:42 | -37.73487 | -71.88537 | 24245 ft | 429 kts | 211° |
| 2026-05-05 22:42 | -37.76096 | -71.90316 | 23658 ft | 422 kts | 213° |
| 2026-05-05 22:43 | -37.78654 | -71.92083 | 23101 ft | 417 kts | 213° |
| 2026-05-05 22:43 | -37.81192 | -71.93833 | 22558 ft | 412 kts | 213° |
| 2026-05-05 22:43 | -37.83687 | -71.95553 | 22067 ft | 406 kts | 213° |
| 2026-05-05 22:43 | -37.86160 | -71.97255 | 21574 ft | 401 kts | 214° |
| 2026-05-05 22:44 | -37.88603 | -71.98939 | 21101 ft | 396 kts | 214° |
| 2026-05-05 22:44 | -37.91014 | -72.00603 | 20636 ft | 391 kts | 214° |
| 2026-05-05 22:44 | -37.93384 | -72.02246 | 20164 ft | 387 kts | 214° |
| 2026-05-05 22:44 | -37.95739 | -72.03884 | 19693 ft | 383 kts | 214° |
| 2026-05-05 22:45 | -37.98062 | -72.05502 | 19216 ft | 380 kts | 214° |
| 2026-05-05 22:45 | -38.00378 | -72.07113 | 18730 ft | 377 kts | 214° |
| 2026-05-05 22:45 | -38.02667 | -72.08705 | 18240 ft | 375 kts | 214° |
| 2026-05-05 22:45 | -38.04956 | -72.10294 | 17745 ft | 373 kts | 214° |
| 2026-05-05 22:46 | -38.07203 | -72.11852 | 17253 ft | 371 kts | 214° |
| 2026-05-05 22:46 | -38.09458 | -72.13420 | 16757 ft | 369 kts | 214° |
| 2026-05-05 22:46 | -38.11712 | -72.14990 | 16258 ft | 368 kts | 214° |
| 2026-05-05 22:46 | -38.13942 | -72.16547 | 15769 ft | 366 kts | 214° |
| 2026-05-05 22:47 | -38.16173 | -72.18107 | 15273 ft | 364 kts | 214° |
| 2026-05-05 22:47 | -38.18393 | -72.19657 | 14771 ft | 362 kts | 214° |
| 2026-05-05 22:47 | -38.20589 | -72.21190 | 14291 ft | 360 kts | 214° |
| 2026-05-05 22:47 | -38.22781 | -72.22719 | 13785 ft | 357 kts | 214° |
| 2026-05-05 22:48 | -38.24948 | -72.24232 | 13289 ft | 355 kts | 214° |
| 2026-05-05 22:48 | -38.27109 | -72.25742 | 12801 ft | 352 kts | 214° |
| 2026-05-05 22:48 | -38.29244 | -72.27239 | 12304 ft | 349 kts | 214° |
| 2026-05-05 22:48 | -38.31368 | -72.28731 | 11804 ft | 347 kts | 214° |
| 2026-05-05 22:49 | -38.33469 | -72.30206 | 11294 ft | 344 kts | 214° |
| 2026-05-05 22:49 | -38.35563 | -72.31681 | 10785 ft | 342 kts | 213° |
| 2026-05-05 22:49 | -38.37600 | -72.33112 | 10406 ft | 324 kts | 212° |
| 2026-05-05 22:49 | -38.39499 | -72.34435 | 10174 ft | 302 kts | 212° |
| 2026-05-05 22:50 | -38.41327 | -72.35712 | 9927 ft | 295 kts | 212° |
| 2026-05-05 22:50 | -38.43133 | -72.36915 | 9816 ft | 295 kts | 210° |
| 2026-05-05 22:50 | -38.44977 | -72.38059 | 9690 ft | 296 kts | 208° |
| 2026-05-05 22:50 | -38.46809 | -72.39161 | 9559 ft | 294 kts | 208° |
| 2026-05-05 22:51 | -38.48668 | -72.40269 | 9206 ft | 294 kts | 207° |
| 2026-05-05 22:51 | -38.50505 | -72.41365 | 8705 ft | 291 kts | 207° |
| 2026-05-05 22:51 | -38.52329 | -72.42462 | 8192 ft | 288 kts | 207° |
| 2026-05-05 22:51 | -38.54128 | -72.43553 | 7708 ft | 286 kts | 207° |
| 2026-05-05 22:52 | -38.55922 | -72.44648 | 7209 ft | 286 kts | 207° |
| 2026-05-05 22:52 | -38.57708 | -72.45742 | 6702 ft | 282 kts | 207° |
| 2026-05-05 22:52 | -38.59471 | -72.46822 | 6213 ft | 279 kts | 207° |
| 2026-05-05 22:52 | -38.61215 | -72.47894 | 5727 ft | 276 kts | 207° |
| 2026-05-05 22:53 | -38.62939 | -72.48950 | 5257 ft | 274 kts | 207° |
| 2026-05-05 22:53 | -38.64656 | -72.50000 | 4780 ft | 271 kts | 207° |
| 2026-05-05 22:53 | -38.66303 | -72.51006 | 4319 ft | 260 kts | 207° |
| 2026-05-05 22:53 | -38.67901 | -72.51980 | 3878 ft | 250 kts | 207° |
| 2026-05-05 22:54 | -38.69444 | -72.52926 | 3450 ft | 242 kts | 207° |
| 2026-05-05 22:54 | -38.70940 | -72.53843 | 3033 ft | 234 kts | 206° |
| 2026-05-05 22:54 | -38.72389 | -72.54733 | 2699 ft | 225 kts | 206° |
| 2026-05-05 22:54 | -38.73736 | -72.55563 | 2640 ft | 206 kts | 206° |
| 2026-05-05 22:55 | -38.75003 | -72.56345 | 2590 ft | 198 kts | 206° |
| 2026-05-05 22:55 | -38.76233 | -72.57105 | 2519 ft | 195 kts | 206° |
| 2026-05-05 22:55 | -38.77454 | -72.57860 | 2437 ft | 194 kts | 206° |
| 2026-05-05 22:55 | -38.78661 | -72.58606 | 2356 ft | 193 kts | 206° |
| 2026-05-05 22:56 | -38.79860 | -72.59344 | 2301 ft | 184 kts | 206° |
| 2026-05-05 22:56 | -38.80944 | -72.60012 | 2199 ft | 164 kts | 206° |
| 2026-05-05 22:56 | -38.81922 | -72.60615 | 2126 ft | 151 kts | 206° |
| 2026-05-05 22:56 | -38.82840 | -72.61183 | 2059 ft | 146 kts | 206° |
| 2026-05-05 22:57 | -38.83774 | -72.61670 | 1967 ft | 145 kts | 197° |
| 2026-05-05 22:57 | -38.84738 | -72.62053 | 1747 ft | 144 kts | 197° |
| 2026-05-05 22:57 | -38.85691 | -72.62432 | 1552 ft | 145 kts | 197° |
| 2026-05-05 22:57 | -38.86674 | -72.62822 | 1356 ft | 149 kts | 197° |
| 2026-05-05 22:58 | -38.87663 | -72.63212 | 1157 ft | 149 kts | 197° |
| 2026-05-05 22:58 | -38.88655 | -72.63603 | 951 ft | 149 kts | 197° |
| 2026-05-05 22:58 | -38.89638 | -72.63992 | 748 ft | 148 kts | 197° |
| 2026-05-05 22:58 | -38.90614 | -72.64389 | 565 ft | 147 kts | 197° |
| 2026-05-05 22:59 | -38.91588 | -72.64761 | 392 ft | 146 kts | 195° |
| 2026-05-05 22:59 | -38.92533 | -72.65139 | 321 ft | 134 kts | 197° |
| 2026-05-05 22:59 | -38.93253 | -72.65422 | 312 ft | 69 kts | 196° |
| 2026-05-05 22:59 | -38.93455 | -72.65496 | 311 ft | 18 kts | 197° |
| 2026-05-05 23:00 | -38.93580 | -72.65518 | 312 ft | 5 kts | 163° |
| 2026-05-05 23:00 | -38.93599 | -72.65516 | 312 ft | 1 kts | 185° |
| 2026-05-05 23:00 | -38.93610 | -72.65526 | 312 ft | 6 kts | 225° |
| 2026-05-05 23:01 | -38.93579 | -72.65554 | 311 ft | 10 kts | 11° |
| 2026-05-05 23:01 | -38.93523 | -72.65532 | 312 ft | 7 kts | 17° |
| 2026-05-05 23:01 | -38.93487 | -72.65518 | 312 ft | 4 kts | 17° |
| 2026-05-05 23:01 | -38.93448 | -72.65503 | 311 ft | 12 kts | 17° |
| 2026-05-05 23:02 | -38.93368 | -72.65471 | 310 ft | 11 kts | 17° |
| 2026-05-05 23:02 | -38.93299 | -72.65443 | 312 ft | 13 kts | 17° |
| 2026-05-05 23:02 | -38.93216 | -72.65410 | 312 ft | 12 kts | 17° |
| 2026-05-05 23:02 | -38.93128 | -72.65374 | 312 ft | 17 kts | 18° |
| 2026-05-05 23:03 | -38.93015 | -72.65328 | 314 ft | 17 kts | 17° |
| 2026-05-05 23:03 | -38.92904 | -72.65283 | 315 ft | 13 kts | 17° |
| 2026-05-05 23:03 | -38.92845 | -72.65212 | 315 ft | 11 kts | 80° |
| 2026-05-05 23:03 | -38.92855 | -72.65137 | 314 ft | 7 kts | 104° |
| 2026-05-05 23:04 | -38.92864 | -72.65096 | 314 ft | 4 kts | 105° |
| 2026-05-05 23:04 | -38.92870 | -72.65063 | 314 ft | 3 kts | 105° |
| 2026-05-05 23:04 | -38.92878 | -72.65019 | 314 ft | 9 kts | 97° |
| 2026-05-05 23:04 | -38.92853 | -72.64955 | 312 ft | 8 kts | 24° |
| 2026-05-05 23:05 | -38.92806 | -72.64933 | 312 ft | 7 kts | 19° |
| 2026-05-05 23:05 | -38.92767 | -72.64917 | 313 ft | 5 kts | 17° |
| 2026-05-05 23:05 | -38.92734 | -72.64903 | 313 ft | 4 kts | 17° |
| 2026-05-05 23:05 | -38.92707 | -72.64892 | 313 ft | 4 kts | 17° |
| 2026-05-05 23:06 | -38.92691 | -72.64877 | 313 ft | 2 kts | 54° |
| 2026-05-05 23:06 | -38.92686 | -72.64858 | 313 ft | 4 kts | 81° |
| 2026-05-05 23:06 | -38.92690 | -72.64830 | 313 ft | 3 kts | 101° |
| 2026-05-05 23:06 | -38.92694 | -72.64808 | 313 ft | 2 kts | 106° |
| 2026-05-05 23:07 | -38.92698 | -72.64793 | 312 ft | 2 kts | 106° |
| 2026-05-05 23:07 | -38.92700 | -72.64782 | 312 ft | 1 kts | 107° |
| 2026-05-05 23:07 | -38.92702 | -72.64775 | 313 ft | 1 kts | 107° |
| 2026-05-05 23:07 | -38.92705 | -72.64764 | 313 ft | 2 kts | 107° |